Terminal Aerodrome Forecast
Issued by NWS Binghamton, NY

Home | Current Version | Previous Version | Text Only | Print | Product List | Glossary On
Versions: 1 2 3 4 5 6 7 8 9 10 11 12 13 14 15 16 17 18 19 20 21 22
000
FTUS41 KBGM 130540
TAFBGM
TAF
KBGM 130540Z 1306/1406 29015G25KT P6SM SCT020
      TEMPO 1309/1313 2SM -SHSN BLSN OVC015
     FM131300 29016G30KT P6SM -SN OVC025
     FM132000 29014G22KT P6SM SCT030
     FM132300 28008KT P6SM SCT070
     FM140400 24005KT 2SM -SN OVC020=

USA.gov is the U.S. government's official web portal to all federal, state and local government web resources and services.